Time;durP1;ratioP1;P1;durP2;ratioP2;P2;SDS_P1;SDS_P2;PMS_P1;PMS_P2;Temp;Humidity;BMP_temperature;BMP_pressure;BME280_temperature;BME280_humidity;BME280_pressure;Samples;Min_cycle;Max_cycle;Signal;HPM_P1;HPM_P2
2022/10/10 00:02:09;;;;;;;7.05;2.38;;;;;;;16.64;100.00;100007.84;5052486;28;20158;-94
2022/10/10 00:04:35;;;;;;;9.40;3.17;;;;;;;16.45;100.00;100026.59;5054636;28;20048;-95
2022/10/10 00:07:13;;;;;;;;;;;;;;;;;;;;;
2022/10/10 00:09:45;;;;;;;18.15;3.75;;;;;;;16.63;100.00;100030.06;5072081;28;20052;-96
2022/10/10 00:12:34;;;;;;;;;;;;;;;16.71;100.00;100018.69;5074110;28;20491;-96
2022/10/10 00:15:32;;;;;;;;;;;;;;;;;;;;;
2022/10/10 00:18:16;;;;;;;15.88;3.13;;;;;;;16.76;100.00;100004.97;5071432;28;20067;-96
2022/10/10 00:21:10;;;;;;;;;;;;;;;;;;;;;
2022/10/10 00:24:04;;;;;;;11.10;2.75;;;;;;;16.56;100.00;99997.19;5072527;28;20060;-96
2022/10/10 00:26:39;;;;;;;9.07;3.00;;;;;;;16.50;100.00;99997.81;5066400;28;20037;-96
2022/10/10 00:32:04;;;;;;;11.48;2.60;;;;;;;16.84;100.00;100003.25;5071219;28;20029;-96
2022/10/10 00:34:29;;;;;;;14.63;2.72;;;;;;;16.73;100.00;100005.31;5060417;28;20060;-96
2022/10/10 00:36:55;;;;;;;18.02;2.90;;;;;;;16.57;100.00;100022.72;5060260;28;20035;-95
2022/10/10 00:39:28;;;;;;;15.15;3.55;;;;;;;16.70;100.00;100010.91;5062193;28;20132;-96
2022/10/10 00:42:02;;;;;;;7.30;2.63;;;;;;;16.86;100.00;100005.75;5060030;28;20036;-96
2022/10/10 00:47:26;;;;;;;10.43;2.25;;;;;;;17.02;100.00;100005.88;5059602;28;20029;-96
2022/10/10 00:49:54;;;;;;;6.72;2.30;;;;;;;16.97;100.00;99996.72;5062149;28;20100;-96
2022/10/10 00:52:25;;;;;;;10.35;2.10;;;;;;;17.19;100.00;100017.41;5044030;28;20026;-96
2022/10/10 00:54:56;;;;;;;7.82;2.25;;;;;;;17.18;100.00;100002.50;5039037;28;20120;-96
2022/10/10 00:57:25;;;;;;;12.18;2.22;;;;;;;17.25;100.00;100007.97;5040685;28;20059;-96
2022/10/10 00:59:52;;;;;;;15.80;3.03;;;;;;;17.04;100.00;100009.19;5041533;28;20025;-96
2022/10/10 01:02:20;;;;;;;8.73;2.33;;;;;;;17.13;100.00;100023.34;5037425;28;20119;-96
2022/10/10 01:04:46;;;;;;;10.52;2.80;;;;;;;17.11;100.00;100006.75;5035922;28;20030;-96
2022/10/10 01:07:21;;;;;;;10.70;2.40;;;;;;;17.12;100.00;100024.34;5057621;28;20036;-96
2022/10/10 01:09:56;;;;;;;13.20;2.72;;;;;;;17.19;100.00;100009.44;5055179;28;20418;-95
2022/10/10 01:12:53;;;;;;;13.73;2.30;;;;;;;17.40;100.00;100019.69;5061332;28;20089;-96
2022/10/10 01:15:25;;;;;;;7.22;2.70;;;;;;;17.55;100.00;100013.78;5055896;28;20045;-96
2022/10/10 01:18:09;;;;;;;14.95;2.72;;;;;;;17.56;100.00;100015.44;5052781;28;20025;-96
2022/10/10 01:20:43;;;;;;;6.50;2.00;;;;;;;17.57;100.00;100019.75;5057145;28;20475;-96
2022/10/10 01:23:15;;;;;;;8.63;1.90;;;;;;;17.57;100.00;100027.72;5055383;28;20482;-96
2022/10/10 01:26:20;;;;;;;8.23;2.00;;;;;;;17.55;100.00;100029.69;5057059;28;20067;-96
2022/10/10 01:29:40;;;;;;;6.43;2.30;;;;;;;17.56;100.00;100026.06;5056738;28;20487;-96
2022/10/10 01:32:23;;;;;;;12.07;3.60;;;;;;;17.56;100.00;100026.06;5057063;28;20037;-95
2022/10/10 01:35:02;;;;;;;6.18;1.98;;;;;;;17.54;100.00;100023.56;5054730;28;20033;-96
2022/10/10 01:37:54;;;;;;;9.23;2.47;;;;;;;17.61;100.00;100023.75;5035126;28;20386;-95
2022/10/10 01:40:23;;;;;;;10.63;2.72;;;;;;;17.55;100.00;100024.41;5041673;28;20038;-96
2022/10/10 01:42:53;;;;;;;8.90;2.47;;;;;;;17.54;100.00;100020.09;5034502;28;20056;-96
2022/10/10 01:45:26;;;;;;;8.63;3.20;;;;;;;17.56;100.00;100024.25;5053527;28;20360;-96
2022/10/10 01:47:57;;;;;;;8.32;2.00;;;;;;;17.66;100.00;100026.78;5056297;28;20029;-96
2022/10/10 01:50:25;;;;;;;6.82;2.35;;;;;;;17.69;100.00;100042.38;5055223;28;20029;-96
2022/10/10 01:52:53;;;;;;;6.38;2.83;;;;;;;17.74;100.00;100052.53;5054309;28;20036;-96
2022/10/10 01:55:19;;;;;;;9.82;2.30;;;;;;;17.72;100.00;100047.38;5054706;28;20025;-96
2022/10/10 01:58:06;;;;;;;8.18;2.03;;;;;;;17.71;100.00;100043.03;5054180;28;20080;-96
2022/10/10 02:00:41;;;;;;;8.95;2.88;;;;;;;17.59;100.00;100028.38;5034473;28;20372;-96
2022/10/10 02:03:19;;;;;;;11.38;2.80;;;;;;;17.61;100.00;100029.91;5034426;28;20060;-96
2022/10/10 02:05:59;;;;;;;8.48;2.42;;;;;;;17.63;100.00;100037.69;5034086;28;20022;-96
2022/10/10 02:08:36;;;;;;;8.88;2.40;;;;;;;17.66;100.00;100037.41;5034223;28;20105;-95
2022/10/10 02:11:08;;;;;;;7.50;2.10;;;;;;;17.77;100.00;100055.72;5034001;28;20079;-95
2022/10/10 02:13:48;;;;;;;5.57;2.03;;;;;;;17.73;100.00;100043.75;5040171;28;20033;-96
2022/10/10 02:16:36;;;;;;;7.65;2.15;;;;;;;17.73;100.00;100053.50;5052981;28;20057;-95
2022/10/10 02:19:06;;;;;;;8.02;3.00;;;;;;;17.71;100.00;100044.88;5053093;28;20447;-95
2022/10/10 02:21:33;;;;;;;8.63;2.10;;;;;;;17.69;100.00;100057.47;5053043;28;20033;-96
2022/10/10 02:24:03;;;;;;;5.38;2.42;;;;;;;17.52;100.00;100043.31;5053651;28;20112;-96
2022/10/10 02:26:35;;;;;;;7.25;1.67;;;;;;;17.68;100.00;100047.88;5055066;28;20024;-96
2022/10/10 02:29:15;;;;;;;5.63;2.03;;;;;;;17.62;100.00;100038.72;5054624;28;20445;-96
2022/10/10 02:31:50;;;;;;;11.35;2.92;;;;;;;17.49;100.00;100040.97;5056502;28;20095;-96
2022/10/10 02:34:20;;;;;;;7.35;2.42;;;;;;;17.38;100.00;100037.59;5058211;28;20036;-96
2022/10/10 02:37:04;;;;;;;4.95;2.25;;;;;;;17.41;100.00;100033.78;5059737;28;20049;-96
2022/10/10 02:39:35;;;;;;;7.35;2.53;;;;;;;17.51;100.00;100038.97;5062377;28;20033;-96
2022/10/10 02:42:16;;;;;;;13.52;3.00;;;;;;;17.39;100.00;100039.25;5061871;28;20494;-96
2022/10/10 02:45:12;;;;;;;;;;;;;;;;;;;;;
2022/10/10 04:31:51;;;;;;;10.50;4.25;;;;;;;17.98;100.00;100153.59;5786150;22;20084;-96
2022/10/10 04:34:23;;;;;;;10.75;3.70;;;;;;;17.92;100.00;100148.09;5065815;28;20021;-96
2022/10/10 07:45:53;;;;;;;13.40;2.28;;;;;;;14.00;100.00;100664.38;5594568;23;20421;-95
2022/10/10 07:48:19;;;;;;;12.20;2.05;;;;;;;14.12;100.00;100673.13;4955207;28;20027;-94
2022/10/10 07:50:44;;;;;;;15.02;1.65;;;;;;;14.23;100.00;100670.47;4952326;28;20390;-95
2022/10/10 07:53:10;;;;;;;18.90;3.20;;;;;;;14.36;100.00;100685.38;4950888;28;20039;-96
2022/10/10 07:56:06;;;;;;;8.75;2.15;;;;;;;14.59;100.00;100676.47;4953409;28;20474;-96
2022/10/10 07:58:36;;;;;;;16.13;2.95;;;;;;;14.64;100.00;100684.84;4947371;29;20035;-95
2022/10/10 08:01:14;;;;;;;14.77;2.40;;;;;;;14.93;100.00;100692.25;4955710;28;20140;-96
2022/10/10 08:04:00;;;;;;;17.77;2.50;;;;;;;15.06;100.00;100714.03;4956902;29;20067;-95
2022/10/10 08:09:37;;;;;;;10.88;1.85;;;;;;;15.10;100.00;100713.81;4959251;28;20035;-95
2022/10/10 08:12:12;;;;;;;9.23;1.67;;;;;;;15.12;100.00;100723.28;4957512;28;20028;-96
2022/10/10 10:17:23;;;;;;;13.35;2.20;;;;;;;26.98;43.37;100882.94;5042252;23;20054;-96
2022/10/10 10:20:01;;;;;;;11.20;2.55;;;;;;;27.94;42.93;100890.03;4976047;28;20031;-96
2022/10/10 10:22:37;;;;;;;13.90;1.88;;;;;;;25.39;43.59;100906.69;4957747;28;20291;-96
2022/10/10 10:25:37;;;;;;;12.10;1.52;;;;;;;27.13;42.96;100906.22;4956538;29;20055;-96
2022/10/10 10:28:29;;;;;;;6.88;1.80;;;;;;;25.65;44.42;100904.28;4956909;28;20016;-96
2022/10/10 10:30:59;;;;;;;7.60;1.58;;;;;;;28.57;39.83;100905.00;5081901;23;20058;-96
2022/10/10 10:36:50;;;;;;;8.80;1.80;;;;;;;30.37;40.80;100931.97;5233208;23;20066;-96
2022/10/10 10:40:11;;;;;;;7.10;1.60;;;;;;;32.39;32.64;100920.94;4988092;28;20019;-96
2022/10/10 10:54:43;;;;;;;5.22;1.70;;;;;;;34.30;28.59;100937.19;5063865;23;20043;-96
2022/10/10 10:57:22;;;;;;;;;;;;;;;34.45;29.47;100961.13;4988034;28;20034;-95
2022/10/10 11:00:17;;;;;;;9.20;2.30;;;;;;;34.38;29.32;100958.56;4985008;28;19918;-96
2022/10/10 11:02:55;;;;;;;6.50;1.58;;;;;;;34.63;28.03;100960.84;4967262;28;20055;-95
2022/10/10 11:05:37;;;;;;;7.28;1.35;;;;;;;34.79;27.87;100963.81;4936089;29;20401;-96
2022/10/10 11:30:20;;;;;;;8.40;1.90;;;;;;;32.72;27.78;101001.94;5218690;23;20454;-96
2022/10/10 11:42:10;;;;;;;6.10;1.38;;;;;;;32.64;29.06;100999.53;5057252;23;20050;-96
2022/10/10 12:51:27;;;;;;;7.50;1.25;;;;;;;27.89;32.28;101033.72;5046573;23;20051;31
2022/10/10 13:58:29;;;;;;;6.32;1.27;;;;;;;19.44;50.98;101084.41;4969668;28;20042;-96
2022/10/10 14:00:57;;;;;;;9.25;1.48;;;;;;;18.99;49.91;101067.28;4961541;29;20477;-95
2022/10/10 14:03:24;;;;;;;8.60;1.30;;;;;;;19.33;50.25;101074.75;4981964;28;20038;-96
2022/10/10 14:05:53;;;;;;;7.00;1.52;;;;;;;19.63;49.34;101092.31;4989812;28;20508;-96
2022/10/10 14:08:26;;;;;;;9.32;1.65;;;;;;;19.56;51.52;101083.22;4987322;28;20596;-96
2022/10/10 14:11:04;;;;;;;9.25;1.35;;;;;;;19.36;49.36;101077.13;4988156;28;20031;-96
2022/10/10 14:13:32;;;;;;;7.03;1.25;;;;;;;19.35;49.61;101076.31;4982688;28;20042;-96
2022/10/10 14:16:21;;;;;;;7.47;1.17;;;;;;;19.52;51.92;101079.19;4972742;28;20082;-96
2022/10/10 14:18:46;;;;;;;9.35;1.42;;;;;;;19.42;50.90;101085.38;4959972;28;20036;-95
2022/10/10 14:21:21;;;;;;;6.22;2.00;;;;;;;19.34;49.53;101085.25;4982736;28;20023;-95
2022/10/10 14:34:11;;;;;;;7.40;0.90;;;;;;;19.70;50.46;101106.72;5608076;23;20070;-92
2022/10/10 14:36:41;;;;;;;6.43;1.27;;;;;;;19.18;47.65;101107.16;4974256;28;20019;-93
2022/10/10 14:39:06;;;;;;;8.65;2.20;;;;;;;19.65;49.11;101111.66;4963274;28;20027;-93
2022/10/10 14:41:32;;;;;;;4.28;0.98;;;;;;;19.40;48.94;101098.00;4955309;28;20023;-94
2022/10/10 14:43:57;;;;;;;3.53;0.95;;;;;;;19.73;46.79;101110.97;4953980;29;20031;-94
2022/10/10 14:46:23;;;;;;;2.92;0.93;;;;;;;19.73;47.91;101113.63;4954169;28;20031;-92
2022/10/10 14:48:48;;;;;;;7.93;1.17;;;;;;;19.38;45.56;101115.94;4954004;28;20028;-92
2022/10/10 14:51:14;;;;;;;6.95;1.38;;;;;;;19.57;46.37;101122.22;4956016;29;20067;-94
2022/10/10 14:53:39;;;;;;;9.35;1.67;;;;;;;19.90;46.75;101120.00;4962808;28;20042;-93
2022/10/10 14:56:05;;;;;;;6.82;1.33;;;;;;;19.44;45.47;101124.34;4966887;28;20548;-92
2022/10/10 14:58:31;;;;;;;5.03;1.00;;;;;;;19.81;46.52;101130.53;4975258;28;20062;-93
2022/10/10 15:00:56;;;;;;;4.30;1.25;;;;;;;19.68;45.58;101135.31;4975219;28;20102;-94
2022/10/10 15:03:22;;;;;;;6.25;1.52;;;;;;;19.70;45.40;101133.34;4973614;28;20027;-93
2022/10/10 15:05:48;;;;;;;7.20;1.63;;;;;;;19.35;44.05;101132.22;4974622;28;20054;-93
2022/10/10 15:08:16;;;;;;;6.07;1.35;;;;;;;19.64;44.95;101136.59;4975070;28;20034;-94
2022/10/10 15:10:42;;;;;;;5.20;1.00;;;;;;;19.53;45.40;101134.09;4972531;28;20023;-93
2022/10/10 15:13:09;;;;;;;7.75;1.08;;;;;;;19.72;44.44;101144.75;4973300;28;20033;-93
2022/10/10 15:15:35;;;;;;;9.73;1.55;;;;;;;19.38;44.48;101150.56;4974492;28;20118;-94
2022/10/10 15:18:00;;;;;;;7.35;1.65;;;;;;;19.74;44.84;101150.75;4972740;28;20072;-93
2022/10/10 15:20:29;;;;;;;6.20;1.27;;;;;;;19.41;44.46;101158.28;4973125;28;20031;-93
2022/10/10 15:22:59;;;;;;;3.92;0.80;;;;;;;19.52;44.56;101159.91;4973418;28;20027;-93
2022/10/10 15:25:26;;;;;;;5.95;1.27;;;;;;;19.80;44.32;101166.16;4971188;28;20038;-94
2022/10/10 15:27:52;;;;;;;5.43;1.67;;;;;;;19.79;44.27;101161.84;4970936;28;20026;-93
2022/10/10 15:30:18;;;;;;;6.45;0.90;;;;;;;19.55;42.80;101161.44;4973502;28;20466;-95
2022/10/10 15:32:44;;;;;;;4.45;0.93;;;;;;;19.39;44.87;101164.69;4973522;28;20387;-94
2022/10/10 15:35:16;;;;;;;5.55;1.15;;;;;;;19.49;44.65;101144.25;4973381;28;20485;-93
2022/10/10 15:37:42;;;;;;;7.03;1.48;;;;;;;19.58;44.31;101164.66;4974207;28;20030;-93
2022/10/10 15:40:08;;;;;;;8.35;1.20;;;;;;;19.64;45.29;101173.06;4977304;28;20058;-93
2022/10/10 15:42:33;;;;;;;5.03;0.85;;;;;;;19.69;45.29;101173.47;4962808;28;20027;-93
2022/10/10 15:44:59;;;;;;;6.03;1.00;;;;;;;19.67;44.98;101167.44;4974073;28;20118;-94
2022/10/10 15:47:24;;;;;;;6.82;1.77;;;;;;;19.66;45.31;101176.44;4973794;28;20386;-94
2022/10/10 15:49:50;;;;;;;7.35;1.00;;;;;;;19.62;44.49;101179.38;4957844;29;20046;-93
2022/10/10 15:52:16;;;;;;;6.07;1.10;;;;;;;19.16;45.95;101185.50;4958569;28;20381;-94
2022/10/10 15:54:42;;;;;;;5.70;1.27;;;;;;;19.14;45.98;101196.28;4957254;28;20050;-93
2022/10/10 15:57:07;;;;;;;4.35;0.95;;;;;;;19.31;46.13;101200.06;4972419;28;20473;-93
2022/10/10 15:59:33;;;;;;;9.02;1.25;;;;;;;19.22;45.32;101193.75;4959422;28;20496;-93
2022/10/10 16:01:58;;;;;;;4.22;1.42;;;;;;;19.36;46.32;101200.47;4939048;29;20032;-94
2022/10/10 16:04:24;;;;;;;5.28;1.02;;;;;;;19.35;47.38;101203.25;4957383;29;20027;-92
2022/10/10 16:06:50;;;;;;;6.15;1.27;;;;;;;19.14;47.07;101206.09;4957060;29;20123;-93
2022/10/10 16:09:15;;;;;;;8.50;1.10;;;;;;;19.17;46.93;101213.78;4955879;28;20448;-93
2022/10/10 16:11:41;;;;;;;5.75;1.05;;;;;;;18.88;46.81;101211.97;4956511;29;20039;-92
2022/10/10 16:14:07;;;;;;;5.30;1.02;;;;;;;18.98;47.51;101209.31;4966310;28;20389;-93
2022/10/10 16:16:32;;;;;;;7.10;1.25;;;;;;;19.05;47.18;101220.22;4976715;28;20118;-93
2022/10/10 16:18:58;;;;;;;2.60;0.65;;;;;;;18.97;47.41;101213.78;4962899;28;20031;-94
2022/10/10 16:21:24;;;;;;;4.13;0.98;;;;;;;18.98;48.36;101230.59;4957156;28;20167;-93
2022/10/10 16:23:51;;;;;;;2.70;0.50;;;;;;;18.83;49.46;101230.16;4958330;29;20039;-93
2022/10/10 16:26:25;;;;;;;7.57;0.95;;;;;;;18.79;49.86;101234.03;4957494;28;20019;-92
2022/10/10 16:28:52;;;;;;;6.85;1.45;;;;;;;18.59;48.59;101234.00;4956761;28;20031;-93
2022/10/10 16:31:18;;;;;;;3.80;1.58;;;;;;;18.74;48.90;101231.81;4968737;28;20034;-92
2022/10/10 16:33:45;;;;;;;5.75;1.52;;;;;;;18.61;50.11;101233.88;4946261;29;20031;-94
2022/10/10 16:36:14;;;;;;;7.00;1.20;;;;;;;18.56;48.94;101250.25;4952646;28;20034;-93
2022/10/10 16:38:40;;;;;;;6.20;1.23;;;;;;;18.53;49.67;101239.84;4954094;28;20032;-94
2022/10/10 16:41:08;;;;;;;8.55;2.28;;;;;;;18.26;51.07;101244.94;4955013;29;20039;-94
2022/10/10 16:43:38;;;;;;;6.43;1.33;;;;;;;18.19;52.18;101237.50;4952757;29;20047;-93
2022/10/10 16:46:06;;;;;;;6.85;1.00;;;;;;;18.14;52.02;101253.00;4955827;29;20046;-94
2022/10/10 16:48:33;;;;;;;5.00;0.95;;;;;;;17.97;53.47;101256.25;4956646;28;20031;-95
2022/10/10 16:51:08;;;;;;;4.20;0.82;;;;;;;17.87;53.46;101253.59;4957789;28;20065;-95
2022/10/10 16:53:35;;;;;;;3.50;0.88;;;;;;;17.79;55.11;101274.59;4957807;28;20031;-94
2022/10/10 16:56:03;;;;;;;5.28;0.82;;;;;;;17.65;55.14;101278.41;4955897;29;20122;-93
2022/10/10 16:58:29;;;;;;;4.22;0.65;;;;;;;17.44;55.94;101270.44;4956328;28;20480;-94
2022/10/10 17:00:55;;;;;;;5.50;1.33;;;;;;;17.28;56.38;101281.50;4956313;29;20413;-94
2022/10/10 17:03:21;;;;;;;4.00;0.93;;;;;;;17.21;57.91;101278.47;4956052;28;20031;-93
2022/10/10 17:05:47;;;;;;;4.30;1.00;;;;;;;17.09;56.81;101276.00;4957229;28;20031;-94
2022/10/10 17:08:13;;;;;;;5.68;1.20;;;;;;;16.99;57.55;101291.81;4961271;28;20033;-93
2022/10/10 17:10:38;;;;;;;9.15;1.23;;;;;;;16.82;59.73;101295.81;4956175;28;20035;-92
2022/10/10 17:13:04;;;;;;;5.20;1.10;;;;;;;16.78;59.63;101299.66;4957490;28;20505;-92
2022/10/10 17:15:29;;;;;;;6.28;1.00;;;;;;;16.74;60.83;101307.00;4959589;29;20103;-93
2022/10/10 17:17:55;;;;;;;6.20;0.82;;;;;;;16.55;61.29;101305.00;4951981;29;20473;-91
2022/10/10 17:20:21;;;;;;;5.88;1.35;;;;;;;16.54;61.52;101313.91;4954182;28;20019;-92
2022/10/10 17:22:46;;;;;;;6.93;1.13;;;;;;;16.34;61.61;101311.97;4970092;28;20026;-92
2022/10/10 17:25:12;;;;;;;3.47;0.63;;;;;;;16.27;62.08;101319.53;4967092;28;20023;-92
2022/10/10 17:27:40;;;;;;;6.25;1.55;;;;;;;16.13;62.79;101331.19;4954670;29;20034;-91
2022/10/10 17:30:08;;;;;;;7.35;1.40;;;;;;;16.08;61.41;101325.44;4952576;28;20484;-91
2022/10/10 17:32:35;;;;;;;5.55;1.25;;;;;;;16.00;62.36;101335.78;4942847;28;20039;-91
2022/10/10 17:35:00;;;;;;;5.45;1.42;;;;;;;15.92;62.01;101344.31;4944220;29;20028;-91
2022/10/10 17:37:26;;;;;;;4.60;1.20;;;;;;;15.90;62.82;101345.38;4968927;28;20027;-93
2022/10/10 17:39:52;;;;;;;6.45;1.85;;;;;;;15.64;63.38;101346.34;4953562;28;20031;-92
2022/10/10 17:42:17;;;;;;;4.75;1.17;;;;;;;15.61;62.44;101335.97;4967907;28;20027;-92
2022/10/10 17:44:43;;;;;;;5.05;1.30;;;;;;;15.44;63.28;101344.31;4954023;28;20516;-92
2022/10/10 17:47:08;;;;;;;11.82;2.35;;;;;;;15.36;62.91;101351.97;4957677;28;20049;-94
2022/10/10 17:49:34;;;;;;;6.38;1.20;;;;;;;15.37;63.58;101359.78;4956058;28;20027;-92
2022/10/10 17:52:02;;;;;;;8.35;1.35;;;;;;;15.07;64.09;101362.88;4956539;28;20019;-96
2022/10/10 17:54:28;;;;;;;5.32;1.77;;;;;;;15.05;65.15;101370.06;4952045;29;20395;-95
2022/10/10 17:56:53;;;;;;;6.10;1.65;;;;;;;14.95;64.75;101377.81;4944901;28;20041;-93
2022/10/10 17:59:19;;;;;;;8.55;1.70;;;;;;;14.99;63.11;101379.28;4963114;28;20031;-94
2022/10/10 18:01:44;;;;;;;6.97;1.33;;;;;;;15.02;64.09;101378.22;4955714;28;20509;-96
2022/10/10 18:04:13;;;;;;;7.35;1.75;;;;;;;15.00;64.97;101394.19;4956190;29;20035;-96
2022/10/10 18:06:40;;;;;;;7.32;1.33;;;;;;;14.82;65.70;101400.78;4956357;28;20052;-95
2022/10/10 18:09:06;;;;;;;8.82;1.40;;;;;;;15.00;65.60;101402.13;4955737;28;20035;-94
2022/10/10 18:11:31;;;;;;;7.82;1.88;;;;;;;14.87;64.35;101406.59;4954869;29;20050;-94
2022/10/10 18:14:00;;;;;;;6.95;1.90;;;;;;;14.72;66.36;101415.59;4955286;29;20477;-94
2022/10/10 18:16:29;;;;;;;7.93;1.95;;;;;;;14.54;66.25;101405.31;4955078;29;20031;-93
2022/10/10 18:18:54;;;;;;;7.90;1.95;;;;;;;14.62;66.96;101418.88;4950503;28;20024;-91
2022/10/10 18:21:22;;;;;;;5.75;1.77;;;;;;;14.61;66.48;101419.84;4955414;28;20034;-91
2022/10/10 18:23:48;;;;;;;4.65;1.67;;;;;;;14.59;66.48;101428.78;4968052;28;20522;-91
2022/10/10 18:26:19;;;;;;;8.75;1.77;;;;;;;14.43;67.22;101421.88;4966567;28;20441;-90
2022/10/10 18:28:46;;;;;;;7.00;2.05;;;;;;;14.29;68.66;101428.09;4949742;29;20055;-90
2022/10/10 18:31:18;;;;;;;6.28;2.05;;;;;;;14.27;67.96;101430.00;4957674;28;20448;-91
2022/10/10 18:33:44;;;;;;;8.95;1.77;;;;;;;14.34;68.42;101437.53;4953348;28;20379;-90
2022/10/10 18:36:12;;;;;;;7.45;1.80;;;;;;;14.26;68.76;101430.13;4950746;29;20385;-90
2022/10/10 18:38:38;;;;;;;8.25;2.00;;;;;;;14.13;68.17;101431.88;4955161;28;20122;-91
2022/10/10 18:41:12;;;;;;;9.00;2.10;;;;;;;14.12;68.70;101435.47;4953016;28;20459;-91
2022/10/10 18:43:38;;;;;;;9.35;2.25;;;;;;;14.09;68.80;101445.28;4952794;28;20027;-91
2022/10/10 18:46:07;;;;;;;6.63;1.50;;;;;;;14.07;70.76;101443.69;4955635;28;20030;-93
2022/10/10 18:48:34;;;;;;;7.45;1.60;;;;;;;14.02;71.89;101445.78;4960601;28;20364;-92
2022/10/10 18:51:13;;;;;;;4.30;1.38;;;;;;;14.09;69.82;101450.56;4956806;28;20102;-91
2022/10/10 18:53:41;;;;;;;6.75;1.58;;;;;;;14.05;70.99;101453.50;4952775;29;20039;-91
2022/10/10 18:56:10;;;;;;;5.60;1.35;;;;;;;14.09;70.80;101458.47;4953613;28;20034;-90
2022/10/10 18:58:36;;;;;;;4.65;1.35;;;;;;;14.02;70.24;101458.97;4948669;28;20062;-90
2022/10/10 19:01:08;;;;;;;6.82;1.60;;;;;;;13.99;71.34;101469.75;4949148;29;20058;-91
2022/10/10 19:03:34;;;;;;;5.22;1.42;;;;;;;13.91;71.99;101456.22;4961204;28;20126;-92
2022/10/10 19:06:01;;;;;;;8.63;1.60;;;;;;;13.96;72.71;101462.03;4962685;28;20035;-91
2022/10/10 19:08:27;;;;;;;4.22;1.50;;;;;;;13.87;72.96;101458.22;4955095;28;20027;-91
2022/10/10 19:10:53;;;;;;;4.10;1.33;;;;;;;13.72;74.14;101462.69;4956341;28;20049;-90
2022/10/10 19:13:19;;;;;;;6.38;1.30;;;;;;;13.69;73.44;101469.00;4953776;28;20099;-91
2022/10/10 19:15:46;;;;;;;6.80;1.80;;;;;;;13.71;73.65;101468.91;4954667;28;20478;-91
2022/10/10 19:18:12;;;;;;;7.32;1.00;;;;;;;13.78;72.60;101478.13;4954507;28;20027;-91
2022/10/10 19:20:38;;;;;;;9.32;1.88;;;;;;;13.79;73.41;101471.91;4952840;29;20031;-90
2022/10/10 19:23:05;;;;;;;7.50;1.77;;;;;;;13.67;74.64;101462.13;4955252;28;20050;-90
2022/10/10 19:25:39;;;;;;;9.10;1.25;;;;;;;13.73;74.05;101461.75;4964094;28;20033;-90
2022/10/10 19:28:05;;;;;;;9.57;1.55;;;;;;;13.74;74.04;101476.63;4954422;28;20130;-91
2022/10/10 19:30:32;;;;;;;7.38;1.08;;;;;;;13.60;73.52;101468.75;4954904;28;20046;-91
2022/10/10 19:32:58;;;;;;;8.98;1.70;;;;;;;13.56;73.41;101476.00;4952714;29;20101;-90
2022/10/10 19:35:24;;;;;;;4.40;1.63;;;;;;;13.56;73.66;101477.81;4954097;29;20041;-91
2022/10/10 19:37:49;;;;;;;6.82;1.38;;;;;;;13.54;74.58;101482.34;4957420;28;20036;-91
2022/10/10 19:40:15;;;;;;;5.15;1.20;;;;;;;13.58;74.96;101491.75;4966448;28;20031;-90
2022/10/10 19:42:40;;;;;;;5.28;1.08;;;;;;;13.49;75.56;101496.66;4960469;29;20106;-90
2022/10/10 19:45:06;;;;;;;7.25;1.95;;;;;;;13.42;75.34;101490.06;4958457;28;20086;-91
2022/10/10 19:47:32;;;;;;;8.25;1.40;;;;;;;13.48;74.68;101502.03;4958733;29;20362;-90
2022/10/10 19:49:57;;;;;;;9.63;1.73;;;;;;;13.40;76.27;101496.38;4960355;28;20031;-90
2022/10/10 19:52:23;;;;;;;7.07;1.30;;;;;;;13.35;75.42;101499.31;4960073;28;20035;-91
2022/10/10 19:54:48;;;;;;;7.63;1.40;;;;;;;13.43;75.51;101504.97;4958129;28;20045;-90
2022/10/10 19:57:14;;;;;;;8.88;1.58;;;;;;;13.43;75.10;101515.53;4960097;29;20032;-91
2022/10/10 19:59:40;;;;;;;12.52;2.08;;;;;;;13.41;73.99;101521.84;4948479;28;20031;-90
2022/10/10 20:02:05;;;;;;;12.68;1.88;;;;;;;13.50;73.05;101523.88;4949967;29;20094;-91
2022/10/10 20:04:31;;;;;;;11.27;1.52;;;;;;;13.47;73.81;101532.84;4952896;28;20062;-90
2022/10/10 20:06:56;;;;;;;6.50;1.48;;;;;;;13.42;75.12;101518.25;4951173;28;20053;-90
2022/10/10 20:09:24;;;;;;;9.48;1.70;;;;;;;13.42;74.15;101539.34;4975810;28;20026;-90
2022/10/10 20:11:49;;;;;;;8.18;1.90;;;;;;;13.27;74.10;101530.56;4967646;28;20028;-90
2022/10/10 20:14:15;;;;;;;6.70;1.52;;;;;;;13.29;74.01;101540.13;4955428;29;20086;-90
2022/10/10 20:16:40;;;;;;;5.10;1.50;;;;;;;13.35;74.17;101554.72;4962704;28;20027;-90
2022/10/10 20:19:06;;;;;;;5.22;1.10;;;;;;;13.32;74.71;101551.41;4954306;28;20059;-91
2022/10/10 20:21:32;;;;;;;11.10;1.55;;;;;;;13.34;74.29;101553.00;4955057;29;20024;-90
2022/10/10 20:24:01;;;;;;;5.82;1.98;;;;;;;13.36;74.76;101559.03;4955711;28;20078;-91
2022/10/10 20:26:27;;;;;;;8.23;1.52;;;;;;;13.32;74.37;101554.91;4959981;28;20034;-90
2022/10/10 20:28:53;;;;;;;11.10;1.75;;;;;;;13.33;73.72;101564.53;4961011;29;20027;-90
2022/10/10 20:31:33;;;;;;;8.85;1.55;;;;;;;13.37;74.44;101557.25;4958142;29;20054;-90
2022/10/10 20:34:00;;;;;;;9.82;1.73;;;;;;;13.34;74.49;101560.09;4971149;28;20042;-89
2022/10/10 20:36:28;;;;;;;7.80;1.67;;;;;;;13.35;73.41;101552.09;4957762;28;20035;-91
2022/10/10 20:38:57;;;;;;;11.00;1.90;;;;;;;13.25;74.06;101559.69;4948310;28;20023;-91
2022/10/10 20:41:25;;;;;;;8.30;1.88;;;;;;;13.19;74.48;101565.31;4939866;28;20043;-89
2022/10/10 20:43:56;;;;;;;4.20;1.08;;;;;;;13.17;74.99;101576.88;4940468;29;20059;-90
2022/10/10 20:46:27;;;;;;;8.55;1.67;;;;;;;13.04;75.87;101571.50;4939427;29;20553;-90
2022/10/10 20:48:54;;;;;;;11.13;2.38;;;;;;;13.00;75.23;101570.84;4943163;28;20034;-90
2022/10/10 20:51:19;;;;;;;6.65;1.67;;;;;;;13.01;74.91;101575.19;4979447;28;20034;-90
2022/10/10 20:53:44;;;;;;;9.05;1.85;;;;;;;13.00;74.68;101584.03;4975293;28;20366;-91
2022/10/10 20:56:11;;;;;;;10.90;2.30;;;;;;;13.02;73.56;101578.66;4954938;28;20039;-91
2022/10/10 20:58:38;;;;;;;6.35;1.83;;;;;;;12.95;74.21;101587.88;4961013;28;20102;-90
2022/10/10 21:01:13;;;;;;;10.52;1.67;;;;;;;12.96;74.11;101587.78;4946880;28;20022;-91
2022/10/10 21:03:39;;;;;;;6.20;1.60;;;;;;;12.89;75.29;101589.94;4959310;28;20028;-91
2022/10/10 21:06:08;;;;;;;13.18;2.42;;;;;;;12.91;72.78;101592.47;4957931;28;20039;-91
2022/10/10 21:08:34;;;;;;;7.18;1.60;;;;;;;12.93;72.77;101593.22;4949995;28;20445;-90
2022/10/10 21:11:04;;;;;;;10.10;1.98;;;;;;;12.83;73.68;101590.28;4962674;29;20055;-91
2022/10/10 21:13:30;;;;;;;6.45;1.50;;;;;;;12.92;73.64;101596.81;4964171;28;20027;-89
2022/10/10 21:15:56;;;;;;;8.07;1.73;;;;;;;12.83;74.23;101602.63;4961222;28;20386;-90
2022/10/10 21:18:22;;;;;;;8.63;1.65;;;;;;;12.74;73.96;101604.00;4964092;28;20042;-90
2022/10/10 21:20:47;;;;;;;5.40;1.60;;;;;;;12.69;75.08;101595.50;4965227;28;20063;-91
2022/10/10 21:23:13;;;;;;;10.32;1.70;;;;;;;12.41;76.58;101614.69;4960977;28;20019;-92
2022/10/10 21:25:39;;;;;;;6.45;1.77;;;;;;;12.22;76.98;101620.13;4942157;29;20042;-90
2022/10/10 21:28:04;;;;;;;9.10;2.00;;;;;;;12.29;75.49;101627.59;4941086;29;20042;-91
2022/10/10 21:30:30;;;;;;;8.95;1.77;;;;;;;12.23;76.42;101630.56;4940873;29;20517;-90
2022/10/10 21:32:55;;;;;;;8.32;1.85;;;;;;;12.17;77.15;101622.19;4944737;29;20095;-89
2022/10/10 21:35:21;;;;;;;7.53;1.55;;;;;;;12.17;77.78;101633.56;4944541;28;20039;-90
2022/10/10 21:37:46;;;;;;;7.10;1.60;;;;;;;12.07;77.61;101646.38;4958190;28;20106;-90
2022/10/10 21:40:12;;;;;;;9.65;2.08;;;;;;;12.13;77.98;101653.09;4954540;28;20031;-91
2022/10/10 21:42:38;;;;;;;11.98;1.73;;;;;;;12.04;78.26;101643.06;4938777;29;20082;-91
2022/10/10 21:45:04;;;;;;;8.07;1.52;;;;;;;12.04;78.32;101645.69;4937274;29;20035;-91
2022/10/10 21:47:29;;;;;;;9.40;1.92;;;;;;;11.97;78.93;101639.91;4938500;29;20034;-90
2022/10/10 21:49:55;;;;;;;11.80;2.03;;;;;;;11.89;78.64;101644.75;4939429;29;20410;-91
2022/10/10 21:52:20;;;;;;;11.13;1.85;;;;;;;11.84;78.62;101652.84;4943809;29;20036;-90
2022/10/10 21:54:46;;;;;;;12.27;2.03;;;;;;;11.81;79.27;101662.66;4942391;29;20430;-90